sensor_id;sensor_type;location;lat;lon;timestamp;temperature;humidity
69084;SHT31;56185;48.526;9.044;2023-04-25T00:00:18;9.26;77.94
69084;SHT31;56185;48.526;9.044;2023-04-25T00:02:44;9.19;77.86
69084;SHT31;56185;48.526;9.044;2023-04-25T00:05:09;9.32;76.82
69084;SHT31;56185;48.526;9.044;2023-04-25T00:07:34;9.33;78.14
69084;SHT31;56185;48.526;9.044;2023-04-25T00:10:00;9.47;77.18
69084;SHT31;56185;48.526;9.044;2023-04-25T00:12:26;9.39;77.84
69084;SHT31;56185;48.526;9.044;2023-04-25T00:14:51;9.23;78.60
69084;SHT31;56185;48.526;9.044;2023-04-25T00:17:16;9.23;78.45
69084;SHT31;56185;48.526;9.044;2023-04-25T00:19:42;9.26;77.70
69084;SHT31;56185;48.526;9.044;2023-04-25T00:22:07;9.19;78.30
69084;SHT31;56185;48.526;9.044;2023-04-25T00:24:33;9.18;76.99
69084;SHT31;56185;48.526;9.044;2023-04-25T00:26:58;9.18;77.31
69084;SHT31;56185;48.526;9.044;2023-04-25T00:29:23;9.16;76.66
69084;SHT31;56185;48.526;9.044;2023-04-25T00:31:48;9.10;76.08
69084;SHT31;56185;48.526;9.044;2023-04-25T00:34:14;9.15;76.45
69084;SHT31;56185;48.526;9.044;2023-04-25T00:36:39;9.10;77.21
69084;SHT31;56185;48.526;9.044;2023-04-25T00:39:04;9.10;76.92
69084;SHT31;56185;48.526;9.044;2023-04-25T00:41:30;9.36;75.98
69084;SHT31;56185;48.526;9.044;2023-04-25T00:43:55;9.31;76.04
69084;SHT31;56185;48.526;9.044;2023-04-25T00:46:21;9.40;75.89
69084;SHT31;56185;48.526;9.044;2023-04-25T00:48:46;9.28;76.51
69084;SHT31;56185;48.526;9.044;2023-04-25T00:51:16;9.33;76.04
69084;SHT31;56185;48.526;9.044;2023-04-25T00:53:41;9.29;76.24
69084;SHT31;56185;48.526;9.044;2023-04-25T00:56:07;9.28;76.07
69084;SHT31;56185;48.526;9.044;2023-04-25T00:58:33;9.26;75.85
69084;SHT31;56185;48.526;9.044;2023-04-25T01:01:00;9.16;75.94
69084;SHT31;56185;48.526;9.044;2023-04-25T01:03:25;9.26;76.07
69084;SHT31;56185;48.526;9.044;2023-04-25T01:05:51;9.25;76.31
69084;SHT31;56185;48.526;9.044;2023-04-25T01:08:16;9.29;76.52
69084;SHT31;56185;48.526;9.044;2023-04-25T01:10:42;9.35;76.85
69084;SHT31;56185;48.526;9.044;2023-04-25T01:13:07;9.29;77.08
69084;SHT31;56185;48.526;9.044;2023-04-25T01:15:33;9.21;77.80
69084;SHT31;56185;48.526;9.044;2023-04-25T01:17:58;9.23;77.73
69084;SHT31;56185;48.526;9.044;2023-04-25T01:20:24;9.26;78.04
69084;SHT31;56185;48.526;9.044;2023-04-25T01:22:51;9.23;78.14
69084;SHT31;56185;48.526;9.044;2023-04-25T01:25:17;9.22;78.65
69084;SHT31;56185;48.526;9.044;2023-04-25T01:27:43;9.15;78.47
69084;SHT31;56185;48.526;9.044;2023-04-25T01:30:09;9.02;79.06
69084;SHT31;56185;48.526;9.044;2023-04-25T01:32:34;9.12;77.35
69084;SHT31;56185;48.526;9.044;2023-04-25T01:35:00;9.29;77.80
69084;SHT31;56185;48.526;9.044;2023-04-25T01:37:26;9.11;78.75
69084;SHT31;56185;48.526;9.044;2023-04-25T01:39:51;9.18;78.87
69084;SHT31;56185;48.526;9.044;2023-04-25T01:42:18;9.11;78.65
69084;SHT31;56185;48.526;9.044;2023-04-25T01:44:43;9.10;79.43
69084;SHT31;56185;48.526;9.044;2023-04-25T01:47:09;9.19;79.74
69084;SHT31;56185;48.526;9.044;2023-04-25T01:49:34;9.21;79.45
69084;SHT31;56185;48.526;9.044;2023-04-25T01:51:59;9.19;79.20
69084;SHT31;56185;48.526;9.044;2023-04-25T01:54:24;9.12;80.01
69084;SHT31;56185;48.526;9.044;2023-04-25T01:56:50;9.15;80.40
69084;SHT31;56185;48.526;9.044;2023-04-25T01:59:16;9.08;81.07
69084;SHT31;56185;48.526;9.044;2023-04-25T02:01:41;9.21;79.96
69084;SHT31;56185;48.526;9.044;2023-04-25T02:04:06;9.21;79.52
69084;SHT31;56185;48.526;9.044;2023-04-25T02:06:31;9.16;79.70
69084;SHT31;56185;48.526;9.044;2023-04-25T02:08:57;9.08;81.04
69084;SHT31;56185;48.526;9.044;2023-04-25T02:11:22;9.08;79.43
69084;SHT31;56185;48.526;9.044;2023-04-25T02:13:47;8.97;80.23
69084;SHT31;56185;48.526;9.044;2023-04-25T02:16:13;9.02;80.77
69084;SHT31;56185;48.526;9.044;2023-04-25T02:18:38;8.85;81.02
69084;SHT31;56185;48.526;9.044;2023-04-25T02:21:03;8.81;81.80
69084;SHT31;56185;48.526;9.044;2023-04-25T02:23:28;8.77;81.50
69084;SHT31;56185;48.526;9.044;2023-04-25T02:25:54;8.74;81.63
69084;SHT31;56185;48.526;9.044;2023-04-25T02:28:21;8.71;82.00
69084;SHT31;56185;48.526;9.044;2023-04-25T02:30:46;8.85;81.07
69084;SHT31;56185;48.526;9.044;2023-04-25T02:33:11;8.67;80.96
69084;SHT31;56185;48.526;9.044;2023-04-25T02:35:36;8.50;81.31
69084;SHT31;56185;48.526;9.044;2023-04-25T02:38:02;8.37;81.55
69084;SHT31;56185;48.526;9.044;2023-04-25T02:40:27;8.28;81.72
69084;SHT31;56185;48.526;9.044;2023-04-25T02:42:52;8.28;81.34
69084;SHT31;56185;48.526;9.044;2023-04-25T02:45:18;8.17;81.62
69084;SHT31;56185;48.526;9.044;2023-04-25T02:47:43;8.23;82.19
69084;SHT31;56185;48.526;9.044;2023-04-25T02:50:08;8.19;82.28
69084;SHT31;56185;48.526;9.044;2023-04-25T02:52:34;8.09;82.17
69084;SHT31;56185;48.526;9.044;2023-04-25T02:54:59;8.15;82.16
69084;SHT31;56185;48.526;9.044;2023-04-25T02:57:24;8.17;81.46
69084;SHT31;56185;48.526;9.044;2023-04-25T02:59:49;8.21;82.38
69084;SHT31;56185;48.526;9.044;2023-04-25T03:02:14;8.13;82.13
69084;SHT31;56185;48.526;9.044;2023-04-25T03:04:40;8.06;81.99
69084;SHT31;56185;48.526;9.044;2023-04-25T03:07:06;8.23;81.47
69084;SHT31;56185;48.526;9.044;2023-04-25T03:09:31;8.02;81.99
69084;SHT31;56185;48.526;9.044;2023-04-25T03:11:57;7.96;82.52
69084;SHT31;56185;48.526;9.044;2023-04-25T03:14:22;7.98;82.55
69084;SHT31;56185;48.526;9.044;2023-04-25T03:16:47;8.23;82.20
69084;SHT31;56185;48.526;9.044;2023-04-25T03:19:12;8.23;82.08
69084;SHT31;56185;48.526;9.044;2023-04-25T03:21:38;8.32;81.59
69084;SHT31;56185;48.526;9.044;2023-04-25T03:24:04;8.36;81.63
69084;SHT31;56185;48.526;9.044;2023-04-25T03:26:29;8.30;81.74
69084;SHT31;56185;48.526;9.044;2023-04-25T03:28:54;8.34;81.62
69084;SHT31;56185;48.526;9.044;2023-04-25T03:31:20;8.39;81.28
69084;SHT31;56185;48.526;9.044;2023-04-25T03:33:46;8.43;81.01
69084;SHT31;56185;48.526;9.044;2023-04-25T03:36:11;8.46;80.70
69084;SHT31;56185;48.526;9.044;2023-04-25T03:38:36;8.44;80.51
69084;SHT31;56185;48.526;9.044;2023-04-25T03:41:02;8.42;79.40
69084;SHT31;56185;48.526;9.044;2023-04-25T03:43:27;8.33;79.40
69084;SHT31;56185;48.526;9.044;2023-04-25T03:45:52;8.22;80.04
69084;SHT31;56185;48.526;9.044;2023-04-25T03:48:18;8.12;80.67
69084;SHT31;56185;48.526;9.044;2023-04-25T03:50:43;8.16;81.15
69084;SHT31;56185;48.526;9.044;2023-04-25T03:53:08;8.23;80.87
69084;SHT31;56185;48.526;9.044;2023-04-25T03:55:33;8.16;82.19
69084;SHT31;56185;48.526;9.044;2023-04-25T03:57:59;8.23;82.27
69084;SHT31;56185;48.526;9.044;2023-04-25T04:00:25;8.39;81.50
69084;SHT31;56185;48.526;9.044;2023-04-25T04:02:50;8.21;82.25
69084;SHT31;56185;48.526;9.044;2023-04-25T04:05:15;8.17;81.92
69084;SHT31;56185;48.526;9.044;2023-04-25T04:07:40;8.16;81.56
69084;SHT31;56185;48.526;9.044;2023-04-25T04:10:07;8.05;81.65
69084;SHT31;56185;48.526;9.044;2023-04-25T04:12:32;7.93;82.41
69084;SHT31;56185;48.526;9.044;2023-04-25T04:14:57;7.96;82.59
69084;SHT31;56185;48.526;9.044;2023-04-25T04:17:23;7.92;82.12
69084;SHT31;56185;48.526;9.044;2023-04-25T04:19:48;7.77;82.24
69084;SHT31;56185;48.526;9.044;2023-04-25T04:22:13;7.70;82.20
69084;SHT31;56185;48.526;9.044;2023-04-25T04:24:38;7.61;81.54
69084;SHT31;56185;48.526;9.044;2023-04-25T04:27:04;7.60;81.55
69084;SHT31;56185;48.526;9.044;2023-04-25T04:29:29;7.60;82.10
69084;SHT31;56185;48.526;9.044;2023-04-25T04:31:54;7.63;81.73
69084;SHT31;56185;48.526;9.044;2023-04-25T04:34:20;7.68;81.72
69084;SHT31;56185;48.526;9.044;2023-04-25T04:36:45;7.74;81.69
69084;SHT31;56185;48.526;9.044;2023-04-25T04:39:11;7.64;81.80
69084;SHT31;56185;48.526;9.044;2023-04-25T04:41:36;7.57;83.01
69084;SHT31;56185;48.526;9.044;2023-04-25T04:44:02;7.64;82.80
69084;SHT31;56185;48.526;9.044;2023-04-25T04:46:27;7.61;82.39
69084;SHT31;56185;48.526;9.044;2023-04-25T04:48:52;7.79;82.25
69084;SHT31;56185;48.526;9.044;2023-04-25T04:51:17;7.85;81.84
69084;SHT31;56185;48.526;9.044;2023-04-25T04:53:43;7.91;81.33
69084;SHT31;56185;48.526;9.044;2023-04-25T04:56:08;7.88;81.51
69084;SHT31;56185;48.526;9.044;2023-04-25T04:58:33;7.98;81.06
69084;SHT31;56185;48.526;9.044;2023-04-25T05:00:58;8.02;81.59
69084;SHT31;56185;48.526;9.044;2023-04-25T05:03:24;8.05;81.54
69084;SHT31;56185;48.526;9.044;2023-04-25T05:05:49;8.16;80.70
69084;SHT31;56185;48.526;9.044;2023-04-25T05:08:14;8.22;80.27
69084;SHT31;56185;48.526;9.044;2023-04-25T05:10:39;7.99;81.79
69084;SHT31;56185;48.526;9.044;2023-04-25T05:13:05;8.10;80.42
69084;SHT31;56185;48.526;9.044;2023-04-25T05:15:30;8.05;81.94
69084;SHT31;56185;48.526;9.044;2023-04-25T05:17:55;8.16;81.20
69084;SHT31;56185;48.526;9.044;2023-04-25T05:20:20;8.22;80.70
69084;SHT31;56185;48.526;9.044;2023-04-25T05:22:46;8.16;81.58
69084;SHT31;56185;48.526;9.044;2023-04-25T05:25:11;8.19;81.84
69084;SHT31;56185;48.526;9.044;2023-04-25T05:27:36;8.23;81.43
69084;SHT31;56185;48.526;9.044;2023-04-25T05:30:02;8.32;81.45
69084;SHT31;56185;48.526;9.044;2023-04-25T05:32:27;8.46;81.56
69084;SHT31;56185;48.526;9.044;2023-04-25T05:34:52;8.46;80.80
69084;SHT31;56185;48.526;9.044;2023-04-25T05:37:18;8.60;79.14
69084;SHT31;56185;48.526;9.044;2023-04-25T05:39:43;8.56;79.93
69084;SHT31;56185;48.526;9.044;2023-04-25T05:42:08;8.61;79.65
69084;SHT31;56185;48.526;9.044;2023-04-25T05:44:34;8.73;77.89
69084;SHT31;56185;48.526;9.044;2023-04-25T05:46:59;8.75;77.33
69084;SHT31;56185;48.526;9.044;2023-04-25T05:49:24;8.77;78.17
69084;SHT31;56185;48.526;9.044;2023-04-25T05:51:49;8.82;78.06
69084;SHT31;56185;48.526;9.044;2023-04-25T05:54:15;8.91;77.79
69084;SHT31;56185;48.526;9.044;2023-04-25T05:56:40;8.95;78.77
69084;SHT31;56185;48.526;9.044;2023-04-25T05:59:05;8.98;78.03
69084;SHT31;56185;48.526;9.044;2023-04-25T06:01:30;9.02;77.60
69084;SHT31;56185;48.526;9.044;2023-04-25T06:03:56;9.10;77.81
69084;SHT31;56185;48.526;9.044;2023-04-25T06:06:21;9.18;77.03
69084;SHT31;56185;48.526;9.044;2023-04-25T06:08:46;9.11;75.71
69084;SHT31;56185;48.526;9.044;2023-04-25T06:11:12;9.02;76.14
69084;SHT31;56185;48.526;9.044;2023-04-25T06:13:37;9.11;76.22
69084;SHT31;56185;48.526;9.044;2023-04-25T06:16:02;9.01;77.04
69084;SHT31;56185;48.526;9.044;2023-04-25T06:18:28;8.95;76.19
69084;SHT31;56185;48.526;9.044;2023-04-25T06:20:53;8.91;76.59
69084;SHT31;56185;48.526;9.044;2023-04-25T06:23:18;9.00;76.60
69084;SHT31;56185;48.526;9.044;2023-04-25T06:25:43;8.95;75.44
69084;SHT31;56185;48.526;9.044;2023-04-25T06:28:09;8.97;76.74
69084;SHT31;56185;48.526;9.044;2023-04-25T06:30:34;8.94;76.49
69084;SHT31;56185;48.526;9.044;2023-04-25T06:32:59;8.95;76.67
69084;SHT31;56185;48.526;9.044;2023-04-25T06:35:24;9.00;76.11
69084;SHT31;56185;48.526;9.044;2023-04-25T06:37:50;8.95;75.81
69084;SHT31;56185;48.526;9.044;2023-04-25T06:40:18;8.94;75.03
69084;SHT31;56185;48.526;9.044;2023-04-25T06:42:46;8.92;75.25
69084;SHT31;56185;48.526;9.044;2023-04-25T06:45:11;8.95;75.30
69084;SHT31;56185;48.526;9.044;2023-04-25T06:47:36;8.98;74.59
69084;SHT31;56185;48.526;9.044;2023-04-25T06:50:02;8.89;75.08
69084;SHT31;56185;48.526;9.044;2023-04-25T06:52:27;8.94;75.40
69084;SHT31;56185;48.526;9.044;2023-04-25T06:54:52;8.88;75.95
69084;SHT31;56185;48.526;9.044;2023-04-25T06:57:20;8.98;75.90
69084;SHT31;56185;48.526;9.044;2023-04-25T06:59:45;8.98;75.67
69084;SHT31;56185;48.526;9.044;2023-04-25T07:02:10;9.00;75.98
69084;SHT31;56185;48.526;9.044;2023-04-25T07:04:36;9.05;77.15
69084;SHT31;56185;48.526;9.044;2023-04-25T07:07:01;9.02;76.55
69084;SHT31;56185;48.526;9.044;2023-04-25T07:09:26;8.84;76.91
69084;SHT31;56185;48.526;9.044;2023-04-25T07:11:51;8.92;76.76
69084;SHT31;56185;48.526;9.044;2023-04-25T07:14:26;8.88;77.27
69084;SHT31;56185;48.526;9.044;2023-04-25T07:16:51;8.87;78.37
69084;SHT31;56185;48.526;9.044;2023-04-25T07:19:35;8.92;78.43
69084;SHT31;56185;48.526;9.044;2023-04-25T07:22:01;8.95;78.50
69084;SHT31;56185;48.526;9.044;2023-04-25T07:24:26;9.02;78.71
69084;SHT31;56185;48.526;9.044;2023-04-25T07:26:51;9.05;78.61
69084;SHT31;56185;48.526;9.044;2023-04-25T07:29:17;9.05;78.51
69084;SHT31;56185;48.526;9.044;2023-04-25T07:31:42;8.95;78.43
69084;SHT31;56185;48.526;9.044;2023-04-25T07:34:07;9.01;78.27
69084;SHT31;56185;48.526;9.044;2023-04-25T07:36:32;8.94;78.69
69084;SHT31;56185;48.526;9.044;2023-04-25T07:38:58;9.05;79.12
69084;SHT31;56185;48.526;9.044;2023-04-25T07:41:34;9.02;79.61
69084;SHT31;56185;48.526;9.044;2023-04-25T07:44:00;9.07;78.58
69084;SHT31;56185;48.526;9.044;2023-04-25T07:46:30;9.11;78.28
69084;SHT31;56185;48.526;9.044;2023-04-25T07:58:11;9.00;79.30
69084;SHT31;56185;48.526;9.044;2023-04-25T08:00:36;9.18;80.63
69084;SHT31;56185;48.526;9.044;2023-04-25T08:03:12;9.15;79.38
69084;SHT31;56185;48.526;9.044;2023-04-25T08:05:37;9.15;80.55
69084;SHT31;56185;48.526;9.044;2023-04-25T08:08:23;8.98;80.54
69084;SHT31;56185;48.526;9.044;2023-04-25T08:10:48;9.00;80.35
69084;SHT31;56185;48.526;9.044;2023-04-25T08:13:14;8.94;81.51
69084;SHT31;56185;48.526;9.044;2023-04-25T08:15:39;8.94;81.74
69084;SHT31;56185;48.526;9.044;2023-04-25T08:18:04;8.91;82.33
69084;SHT31;56185;48.526;9.044;2023-04-25T08:20:30;8.88;81.58
69084;SHT31;56185;48.526;9.044;2023-04-25T08:22:55;8.78;83.29
69084;SHT31;56185;48.526;9.044;2023-04-25T08:25:20;8.88;83.25
69084;SHT31;56185;48.526;9.044;2023-04-25T08:27:45;8.92;81.68
69084;SHT31;56185;48.526;9.044;2023-04-25T08:30:11;9.01;82.72
69084;SHT31;56185;48.526;9.044;2023-04-25T08:32:36;8.94;83.80
69084;SHT31;56185;48.526;9.044;2023-04-25T08:35:01;8.95;83.33
69084;SHT31;56185;48.526;9.044;2023-04-25T08:37:27;8.78;84.88
69084;SHT31;56185;48.526;9.044;2023-04-25T08:39:52;8.74;83.91
69084;SHT31;56185;48.526;9.044;2023-04-25T08:42:17;8.78;84.13
69084;SHT31;56185;48.526;9.044;2023-04-25T08:44:45;8.65;85.18
69084;SHT31;56185;48.526;9.044;2023-04-25T08:47:10;8.63;84.24
69084;SHT31;56185;48.526;9.044;2023-04-25T08:49:35;8.49;84.73
69084;SHT31;56185;48.526;9.044;2023-04-25T08:52:03;8.47;83.85
69084;SHT31;56185;48.526;9.044;2023-04-25T08:54:29;8.42;82.49
69084;SHT31;56185;48.526;9.044;2023-04-25T08:56:56;8.44;83.42
69084;SHT31;56185;48.526;9.044;2023-04-25T08:59:22;8.43;81.30
69084;SHT31;56185;48.526;9.044;2023-04-25T09:01:49;8.28;83.12
69084;SHT31;56185;48.526;9.044;2023-04-25T09:04:14;8.30;81.92
69084;SHT31;56185;48.526;9.044;2023-04-25T09:06:40;8.36;82.53
69084;SHT31;56185;48.526;9.044;2023-04-25T09:09:07;8.33;83.92
69084;SHT31;56185;48.526;9.044;2023-04-25T09:11:34;8.21;82.63
69084;SHT31;56185;48.526;9.044;2023-04-25T09:14:16;8.16;83.58
69084;SHT31;56185;48.526;9.044;2023-04-25T09:19:23;8.19;84.16
69084;SHT31;56185;48.526;9.044;2023-04-25T09:21:50;8.01;86.99
69084;SHT31;56185;48.526;9.044;2023-04-25T09:24:15;8.06;85.53
69084;SHT31;56185;48.526;9.044;2023-04-25T09:26:41;8.17;85.76
69084;SHT31;56185;48.526;9.044;2023-04-25T09:29:07;8.06;85.22
69084;SHT31;56185;48.526;9.044;2023-04-25T09:31:33;8.15;84.28
69084;SHT31;56185;48.526;9.044;2023-04-25T09:34:01;7.98;83.60
69084;SHT31;56185;48.526;9.044;2023-04-25T09:36:27;8.09;83.50
69084;SHT31;56185;48.526;9.044;2023-04-25T09:38:53;8.05;84.58
69084;SHT31;56185;48.526;9.044;2023-04-25T09:41:23;8.07;83.60
69084;SHT31;56185;48.526;9.044;2023-04-25T09:43:49;8.03;82.58
69084;SHT31;56185;48.526;9.044;2023-04-25T09:46:14;7.75;82.27
69084;SHT31;56185;48.526;9.044;2023-04-25T09:48:39;7.72;83.47
69084;SHT31;56185;48.526;9.044;2023-04-25T09:53:38;7.55;84.62
69084;SHT31;56185;48.526;9.044;2023-04-25T09:56:06;7.44;84.27
69084;SHT31;56185;48.526;9.044;2023-04-25T09:58:32;7.46;85.94
69084;SHT31;56185;48.526;9.044;2023-04-25T10:01:04;7.50;83.04
69084;SHT31;56185;48.526;9.044;2023-04-25T10:03:32;7.46;84.43
69084;SHT31;56185;48.526;9.044;2023-04-25T10:06:03;7.40;85.40
69084;SHT31;56185;48.526;9.044;2023-04-25T10:08:32;7.47;85.13
69084;SHT31;56185;48.526;9.044;2023-04-25T10:11:00;7.48;85.93
69084;SHT31;56185;48.526;9.044;2023-04-25T10:13:27;7.44;86.31
69084;SHT31;56185;48.526;9.044;2023-04-25T10:15:53;7.34;86.98
69084;SHT31;56185;48.526;9.044;2023-04-25T10:18:18;7.43;84.75
69084;SHT31;56185;48.526;9.044;2023-04-25T10:20:44;7.58;83.58
69084;SHT31;56185;48.526;9.044;2023-04-25T10:23:13;7.54;82.93
69084;SHT31;56185;48.526;9.044;2023-04-25T10:25:40;7.55;84.83
69084;SHT31;56185;48.526;9.044;2023-04-25T10:28:06;7.35;82.51
69084;SHT31;56185;48.526;9.044;2023-04-25T10:30:31;7.34;84.32
69084;SHT31;56185;48.526;9.044;2023-04-25T10:32:58;7.33;86.16
69084;SHT31;56185;48.526;9.044;2023-04-25T10:35:26;7.40;86.20
69084;SHT31;56185;48.526;9.044;2023-04-25T10:38:11;7.53;85.67
69084;SHT31;56185;48.526;9.044;2023-04-25T10:40:38;7.43;85.75
69084;SHT31;56185;48.526;9.044;2023-04-25T10:43:36;7.55;84.81
69084;SHT31;56185;48.526;9.044;2023-04-25T10:46:02;7.60;84.25
69084;SHT31;56185;48.526;9.044;2023-04-25T10:48:31;7.67;83.10
69084;SHT31;56185;48.526;9.044;2023-04-25T10:51:16;7.70;83.27
69084;SHT31;56185;48.526;9.044;2023-04-25T10:53:44;7.61;83.07
69084;SHT31;56185;48.526;9.044;2023-04-25T10:56:30;7.81;84.30
69084;SHT31;56185;48.526;9.044;2023-04-25T10:59:15;7.91;84.15
69084;SHT31;56185;48.526;9.044;2023-04-25T11:01:49;7.85;83.40
69084;SHT31;56185;48.526;9.044;2023-04-25T11:04:32;7.74;85.45
69084;SHT31;56185;48.526;9.044;2023-04-25T11:09:28;7.84;84.41
69084;SHT31;56185;48.526;9.044;2023-04-25T11:11:57;7.84;82.50
69084;SHT31;56185;48.526;9.044;2023-04-25T11:14:24;7.72;82.28
69084;SHT31;56185;48.526;9.044;2023-04-25T11:16:53;7.68;84.21
69084;SHT31;56185;48.526;9.044;2023-04-25T11:19:20;7.55;84.89
69084;SHT31;56185;48.526;9.044;2023-04-25T11:21:45;7.54;84.27
69084;SHT31;56185;48.526;9.044;2023-04-25T11:24:11;7.58;83.57
69084;SHT31;56185;48.526;9.044;2023-04-25T11:26:36;7.47;83.88
69084;SHT31;56185;48.526;9.044;2023-04-25T11:29:01;7.38;83.68
69084;SHT31;56185;48.526;9.044;2023-04-25T11:31:26;7.54;85.05
69084;SHT31;56185;48.526;9.044;2023-04-25T11:33:53;7.53;83.22
69084;SHT31;56185;48.526;9.044;2023-04-25T11:36:19;7.71;84.69
69084;SHT31;56185;48.526;9.044;2023-04-25T11:38:44;7.79;84.39
69084;SHT31;56185;48.526;9.044;2023-04-25T11:41:09;7.88;83.37
69084;SHT31;56185;48.526;9.044;2023-04-25T11:43:35;7.82;84.10
69084;SHT31;56185;48.526;9.044;2023-04-25T11:46:00;7.84;82.52
69084;SHT31;56185;48.526;9.044;2023-04-25T11:48:25;7.74;82.48
69084;SHT31;56185;48.526;9.044;2023-04-25T11:50:50;7.84;84.40
69084;SHT31;56185;48.526;9.044;2023-04-25T11:53:17;7.85;82.77
69084;SHT31;56185;48.526;9.044;2023-04-25T11:55:43;7.85;84.23
69084;SHT31;56185;48.526;9.044;2023-04-25T11:58:08;8.02;84.71
69084;SHT31;56185;48.526;9.044;2023-04-25T12:00:33;7.96;83.84
69084;SHT31;56185;48.526;9.044;2023-04-25T12:02:58;8.09;83.50
69084;SHT31;56185;48.526;9.044;2023-04-25T12:05:27;8.15;84.63
69084;SHT31;56185;48.526;9.044;2023-04-25T12:07:52;8.21;83.39
69084;SHT31;56185;48.526;9.044;2023-04-25T12:10:18;8.19;81.16
69084;SHT31;56185;48.526;9.044;2023-04-25T12:12:48;8.16;83.56
69084;SHT31;56185;48.526;9.044;2023-04-25T12:15:15;8.10;83.58
69084;SHT31;56185;48.526;9.044;2023-04-25T12:17:41;8.06;84.46
69084;SHT31;56185;48.526;9.044;2023-04-25T12:20:13;8.09;83.19
69084;SHT31;56185;48.526;9.044;2023-04-25T12:22:41;8.16;83.25
69084;SHT31;56185;48.526;9.044;2023-04-25T12:25:07;8.22;82.76
69084;SHT31;56185;48.526;9.044;2023-04-25T12:27:54;8.22;83.04
69084;SHT31;56185;48.526;9.044;2023-04-25T12:31:04;8.16;83.88
69084;SHT31;56185;48.526;9.044;2023-04-25T12:34:02;8.26;83.28
69084;SHT31;56185;48.526;9.044;2023-04-25T12:39:30;8.21;84.98
69084;SHT31;56185;48.526;9.044;2023-04-25T12:45:15;8.50;85.67
69084;SHT31;56185;48.526;9.044;2023-04-25T12:47:40;8.63;84.62
69084;SHT31;56185;48.526;9.044;2023-04-25T12:50:06;8.70;83.10
69084;SHT31;56185;48.526;9.044;2023-04-25T12:52:31;8.82;83.58
69084;SHT31;56185;48.526;9.044;2023-04-25T12:54:56;8.81;82.24
69084;SHT31;56185;48.526;9.044;2023-04-25T12:57:21;8.84;81.60
69084;SHT31;56185;48.526;9.044;2023-04-25T12:59:47;8.89;83.75
69084;SHT31;56185;48.526;9.044;2023-04-25T13:02:12;8.82;82.98
69084;SHT31;56185;48.526;9.044;2023-04-25T13:04:37;8.80;82.83
69084;SHT31;56185;48.526;9.044;2023-04-25T13:07:02;8.70;83.51
69084;SHT31;56185;48.526;9.044;2023-04-25T13:09:28;8.82;83.23
69084;SHT31;56185;48.526;9.044;2023-04-25T13:11:53;8.94;81.17
69084;SHT31;56185;48.526;9.044;2023-04-25T13:14:18;8.98;83.19
69084;SHT31;56185;48.526;9.044;2023-04-25T13:16:43;8.98;84.57
69084;SHT31;56185;48.526;9.044;2023-04-25T13:19:09;8.97;84.10
69084;SHT31;56185;48.526;9.044;2023-04-25T13:21:34;9.08;83.18
69084;SHT31;56185;48.526;9.044;2023-04-25T13:23:59;9.15;82.81
69084;SHT31;56185;48.526;9.044;2023-04-25T13:26:25;9.23;81.88
69084;SHT31;56185;48.526;9.044;2023-04-25T13:28:50;9.29;81.97
69084;SHT31;56185;48.526;9.044;2023-04-25T13:31:15;9.42;81.83
69084;SHT31;56185;48.526;9.044;2023-04-25T13:33:41;9.56;79.80
69084;SHT31;56185;48.526;9.044;2023-04-25T13:36:06;9.64;80.28
69084;SHT31;56185;48.526;9.044;2023-04-25T13:38:31;9.64;78.91
69084;SHT31;56185;48.526;9.044;2023-04-25T13:44:00;9.76;77.38
69084;SHT31;56185;48.526;9.044;2023-04-25T13:46:44;9.95;80.53
69084;SHT31;56185;48.526;9.044;2023-04-25T13:49:12;10.01;78.65
69084;SHT31;56185;48.526;9.044;2023-04-25T13:52:07;10.14;80.20
69084;SHT31;56185;48.526;9.044;2023-04-25T13:57:51;10.35;79.29
69084;SHT31;56185;48.526;9.044;2023-04-25T14:00:56;10.18;78.84
69084;SHT31;56185;48.526;9.044;2023-04-25T14:06:37;10.52;77.90
69084;SHT31;56185;48.526;9.044;2023-04-25T14:10:10;10.69;76.72
69084;SHT31;56185;48.526;9.044;2023-04-25T14:15:56;11.32;73.93
69084;SHT31;56185;48.526;9.044;2023-04-25T14:18:31;10.70;71.16
69084;SHT31;56185;48.526;9.044;2023-04-25T14:30:48;10.49;73.64
69084;SHT31;56185;48.526;9.044;2023-04-25T14:33:42;10.52;76.41
69084;SHT31;56185;48.526;9.044;2023-04-25T14:36:27;10.46;76.20
69084;SHT31;56185;48.526;9.044;2023-04-25T14:38:59;10.39;72.78
69084;SHT31;56185;48.526;9.044;2023-04-25T16:52:02;10.69;74.95
69084;SHT31;56185;48.526;9.044;2023-04-25T16:54:28;10.66;75.93
69084;SHT31;56185;48.526;9.044;2023-04-25T16:56:53;10.79;75.66
69084;SHT31;56185;48.526;9.044;2023-04-25T16:59:19;10.63;74.99
69084;SHT31;56185;48.526;9.044;2023-04-25T17:01:44;10.59;72.20
69084;SHT31;56185;48.526;9.044;2023-04-25T17:04:09;10.52;74.40
69084;SHT31;56185;48.526;9.044;2023-04-25T17:06:34;10.39;75.24
69084;SHT31;56185;48.526;9.044;2023-04-25T17:09:00;10.28;76.22
69084;SHT31;56185;48.526;9.044;2023-04-25T17:11:26;10.32;77.66
69084;SHT31;56185;48.526;9.044;2023-04-25T17:13:59;10.34;77.09
69084;SHT31;56185;48.526;9.044;2023-04-25T17:16:36;10.17;77.27
69084;SHT31;56185;48.526;9.044;2023-04-25T17:19:05;10.18;76.38
69084;SHT31;56185;48.526;9.044;2023-04-25T17:21:30;10.17;77.89
69084;SHT31;56185;48.526;9.044;2023-04-25T17:23:56;10.14;76.94
69084;SHT31;56185;48.526;9.044;2023-04-25T17:26:21;10.21;76.65
69084;SHT31;56185;48.526;9.044;2023-04-25T17:28:46;10.08;78.37
69084;SHT31;56185;48.526;9.044;2023-04-25T17:31:11;10.07;77.85
69084;SHT31;56185;48.526;9.044;2023-04-25T17:33:38;10.05;77.76
69084;SHT31;56185;48.526;9.044;2023-04-25T17:36:03;10.04;78.06
69084;SHT31;56185;48.526;9.044;2023-04-25T17:38:28;9.94;77.70
69084;SHT31;56185;48.526;9.044;2023-04-25T17:40:54;9.73;76.99
69084;SHT31;56185;48.526;9.044;2023-04-25T17:43:19;9.87;76.34
69084;SHT31;56185;48.526;9.044;2023-04-25T17:45:47;9.69;79.44
69084;SHT31;56185;48.526;9.044;2023-04-25T17:48:13;9.79;79.11
69084;SHT31;56185;48.526;9.044;2023-04-25T17:50:38;9.67;81.93
69084;SHT31;56185;48.526;9.044;2023-04-25T17:53:03;9.64;81.77
69084;SHT31;56185;48.526;9.044;2023-04-25T17:55:28;9.63;81.84
69084;SHT31;56185;48.526;9.044;2023-04-25T17:57:54;9.46;80.58
69084;SHT31;56185;48.526;9.044;2023-04-25T18:00:20;9.32;82.52
69084;SHT31;56185;48.526;9.044;2023-04-25T18:02:45;9.23;82.24
69084;SHT31;56185;48.526;9.044;2023-04-25T18:05:11;8.98;84.21
69084;SHT31;56185;48.526;9.044;2023-04-25T18:07:39;9.01;84.52
69084;SHT31;56185;48.526;9.044;2023-04-25T18:10:05;8.94;84.59
69084;SHT31;56185;48.526;9.044;2023-04-25T18:12:32;8.95;85.55
69084;SHT31;56185;48.526;9.044;2023-04-25T18:14:57;8.97;85.83
69084;SHT31;56185;48.526;9.044;2023-04-25T18:17:22;9.00;85.99
69084;SHT31;56185;48.526;9.044;2023-04-25T18:19:47;9.05;85.35
69084;SHT31;56185;48.526;9.044;2023-04-25T18:22:13;8.95;84.89
69084;SHT31;56185;48.526;9.044;2023-04-25T18:24:38;9.05;85.02
69084;SHT31;56185;48.526;9.044;2023-04-25T18:27:06;9.02;85.12
69084;SHT31;56185;48.526;9.044;2023-04-25T18:29:31;8.95;85.06
69084;SHT31;56185;48.526;9.044;2023-04-25T18:31:56;8.95;86.09
69084;SHT31;56185;48.526;9.044;2023-04-25T18:34:22;9.05;86.41
69084;SHT31;56185;48.526;9.044;2023-04-25T18:36:47;9.01;86.08
69084;SHT31;56185;48.526;9.044;2023-04-25T18:39:12;9.19;85.33